Time;durP1;ratioP1;P1;durP2;ratioP2;P2;SDS_P1;SDS_P2;PMS_P1;PMS_P2;Temp;Humidity;BMP_temperature;BMP_pressure;BME280_temperature;BME280_humidity;BME280_pressure;Samples;Min_cycle;Max_cycle;Signal;HPM_P1;HPM_P2
2023/01/03 00:01:40;;;;;;;38.08;29.00;;;8.70;99.90;;;;;;4014421;29;20236;-88
2023/01/03 00:04:01;;;;;;;33.65;26.75;;;8.70;99.90;;;;;;4013340;29;20121;-88
2023/01/03 00:06:22;;;;;;;29.90;24.02;;;8.60;99.90;;;;;;4014776;29;20080;-88
2023/01/03 00:08:42;;;;;;;36.45;27.17;;;8.60;99.90;;;;;;4014925;29;20072;-88
2023/01/03 00:11:13;;;;;;;34.05;27.38;;;8.50;99.90;;;;;;4014345;29;20078;-88
2023/01/03 00:13:33;;;;;;;28.33;24.27;;;8.60;99.90;;;;;;4014768;29;20041;-88
2023/01/03 00:15:53;;;;;;;37.20;29.70;;;8.60;99.90;;;;;;4014515;29;20338;-88
2023/01/03 00:18:13;;;;;;;26.40;20.98;;;8.70;99.90;;;;;;4014661;29;20085;-88
2023/01/03 00:20:33;;;;;;;24.25;21.77;;;8.60;99.90;;;;;;4013849;29;20090;-88
2023/01/03 00:22:54;;;;;;;32.75;23.45;;;8.60;99.90;;;;;;4013334;29;20086;-88
2023/01/03 00:25:14;;;;;;;30.58;25.38;;;8.60;99.90;;;;;;4013764;29;20102;-88
2023/01/03 00:27:34;;;;;;;35.42;28.48;;;8.60;99.90;;;;;;4014564;29;20069;-88
2023/01/03 00:29:54;;;;;;;36.78;26.75;;;8.60;99.90;;;;;;4022445;29;20439;-88
2023/01/03 00:32:14;;;;;;;27.67;23.75;;;8.60;99.90;;;;;;4025513;29;20068;-88
2023/01/03 00:34:35;;;;;;;28.58;25.25;;;8.60;99.90;;;;;;4014735;29;20048;-88
2023/01/03 00:36:55;;;;;;;30.13;25.73;;;8.60;99.90;;;;;;4014855;29;20262;-88
2023/01/03 00:39:16;;;;;;;24.65;21.10;;;8.70;99.90;;;;;;4014614;29;20045;-88
2023/01/03 00:41:36;;;;;;;28.92;23.05;;;8.70;99.90;;;;;;4014225;29;20053;-88
2023/01/03 00:43:56;;;;;;;28.10;22.65;;;8.70;99.90;;;;;;4013984;29;20087;-88
2023/01/03 00:46:18;;;;;;;26.05;23.30;;;8.70;99.90;;;;;;4014390;29;20099;-88
2023/01/03 00:48:39;;;;;;;25.23;22.07;;;8.70;99.90;;;;;;4014645;29;20045;-88
2023/01/03 00:51:12;;;;;;;27.25;21.27;;;8.60;99.90;;;;;;4014440;29;20289;-88
2023/01/03 00:53:34;;;;;;;27.27;22.15;;;8.70;99.90;;;;;;4014273;29;20410;-88
2023/01/03 00:55:54;;;;;;;32.97;22.65;;;8.70;99.90;;;;;;4013333;29;20048;-88
2023/01/03 00:58:15;;;;;;;25.30;22.75;;;8.70;99.90;;;;;;4013933;29;20049;-88
2023/01/03 01:00:34;;;;;;;28.30;24.13;;;8.70;99.90;;;;;;4012968;29;20065;-88
2023/01/03 01:02:54;;;;;;;30.95;22.77;;;8.70;99.90;;;;;;4013815;29;20090;-88
2023/01/03 01:05:15;;;;;;;27.33;22.85;;;8.70;99.90;;;;;;4013413;29;20359;-88
2023/01/03 01:07:35;;;;;;;28.88;23.73;;;8.80;99.90;;;;;;4026282;29;20096;-88
2023/01/03 01:09:54;;;;;;;26.05;22.23;;;8.80;99.90;;;;;;4014333;29;20056;-88
2023/01/03 01:12:15;;;;;;;26.38;23.65;;;8.90;99.90;;;;;;4013345;29;20076;-88
2023/01/03 01:14:34;;;;;;;25.80;23.17;;;8.90;99.90;;;;;;4014341;29;20061;-88
2023/01/03 01:16:57;;;;;;;31.58;23.98;;;8.90;99.90;;;;;;4015996;29;20249;-88
2023/01/03 01:19:19;;;;;;;25.38;22.75;;;8.90;99.90;;;;;;4016676;29;20139;-88
2023/01/03 01:21:40;;;;;;;34.50;24.35;;;8.90;99.90;;;;;;4016663;29;20084;-88
2023/01/03 01:23:59;;;;;;;34.97;25.35;;;8.90;99.90;;;;;;4016571;29;20262;-88
2023/01/03 01:26:21;;;;;;;35.15;26.60;;;8.90;99.90;;;;;;4019760;29;20173;-87
2023/01/03 01:28:42;;;;;;;34.45;28.23;;;8.80;99.90;;;;;;4015950;29;20056;-88
2023/01/03 01:31:04;;;;;;;26.08;23.13;;;8.90;99.90;;;;;;4016690;29;20364;-88
2023/01/03 01:33:24;;;;;;;26.17;21.63;;;8.90;99.90;;;;;;4016656;29;20052;-88
2023/01/03 01:35:44;;;;;;;22.83;20.50;;;8.80;99.90;;;;;;4016222;29;20327;-88
2023/01/03 01:38:04;;;;;;;30.17;20.67;;;8.70;99.90;;;;;;4016688;29;20086;-88
2023/01/03 01:40:24;;;;;;;23.90;21.50;;;8.60;99.90;;;;;;4016064;29;20094;-88
2023/01/03 01:45:23;;;;;;;23.38;20.42;;;8.70;99.90;;;;;;4014910;29;20053;-88
2023/01/03 01:47:49;;;;;;;26.35;21.10;;;8.80;99.90;;;;;;4014231;29;20056;-88
2023/01/03 01:50:12;;;;;;;23.73;20.92;;;8.80;99.90;;;;;;4005345;29;20065;-88
2023/01/03 01:52:35;;;;;;;21.73;19.58;;;8.80;99.90;;;;;;4016308;29;20304;-88
2023/01/03 01:54:55;;;;;;;21.75;19.35;;;8.70;99.90;;;;;;4016502;29;20257;-88
2023/01/03 01:57:18;;;;;;;18.20;16.40;;;8.80;99.90;;;;;;4015088;29;20084;-88
2023/01/03 01:59:39;;;;;;;18.17;16.33;;;8.70;99.90;;;;;;4010009;29;20098;-88
2023/01/03 02:01:59;;;;;;;19.38;15.90;;;8.80;99.90;;;;;;4016452;29;20056;-88
2023/01/03 02:04:27;;;;;;;18.38;16.52;;;8.90;99.90;;;;;;4016025;29;20057;-88
2023/01/03 02:06:48;;;;;;;19.40;17.42;;;8.90;99.90;;;;;;4023630;29;20045;-88
2023/01/03 02:09:08;;;;;;;23.08;19.52;;;8.80;99.90;;;;;;4016257;29;20098;-87
2023/01/03 02:13:04;;;;;;;26.90;20.92;;;8.90;99.90;;;;;;4015790;29;20353;-88
2023/01/03 02:14:41;;;;;;;23.90;19.65;;;8.80;99.90;;;;;;4015329;29;20092;-88
2023/01/03 02:17:10;;;;;;;24.42;19.27;;;8.80;99.90;;;;;;4015603;29;20065;-88
2023/01/03 02:20:10;;;;;;;19.80;17.67;;;8.80;99.90;;;;;;4015949;29;20236;-87
2023/01/03 02:22:41;;;;;;;24.33;17.90;;;8.90;99.90;;;;;;4015933;29;20118;-87
2023/01/03 02:25:01;;;;;;;19.23;16.27;;;8.90;99.90;;;;;;4016149;29;20061;-88
2023/01/03 02:27:43;;;;;;;19.20;17.20;;;8.80;99.90;;;;;;4004843;29;20057;-87
2023/01/03 02:30:09;;;;;;;21.08;18.55;;;8.80;99.90;;;;;;4014154;29;20113;-87
2023/01/03 02:32:49;;;;;;;20.90;17.75;;;8.80;99.90;;;;;;4004923;29;20052;-87
2023/01/03 02:35:27;;;;;;;17.05;15.25;;;8.80;99.90;;;;;;4015935;29;20062;-88
2023/01/03 02:38:18;;;;;;;18.02;15.82;;;8.90;99.90;;;;;;4015743;29;20049;-87
2023/01/03 02:40:46;;;;;;;21.98;15.45;;;8.90;99.90;;;;;;4015541;29;20049;-88
2023/01/03 02:43:24;;;;;;;21.52;19.45;;;8.80;99.90;;;;;;4015901;29;20057;-88
2023/01/03 02:46:35;;;;;;;19.98;17.90;;;8.80;99.90;;;;;;4003881;29;20050;-88
2023/01/03 02:48:59;;;;;;;25.23;20.00;;;8.60;99.90;;;;;;3969305;30;20058;-88
2023/01/03 02:51:32;;;;;;;22.10;18.27;;;8.50;99.90;;;;;;3969250;30;20074;-87
2023/01/03 02:53:52;;;;;;;20.15;18.20;;;8.50;99.90;;;;;;3968708;30;20235;-88
2023/01/03 02:56:35;;;;;;;18.13;16.33;;;8.40;99.90;;;;;;3969309;30;20058;-88
2023/01/03 02:59:00;;;;;;;22.17;15.70;;;8.40;99.90;;;;;;3966654;30;20183;-88
2023/01/03 03:01:20;;;;;;;17.73;15.45;;;8.50;99.90;;;;;;3968266;30;20086;-88
2023/01/03 03:03:40;;;;;;;16.80;15.00;;;8.60;99.90;;;;;;3969050;30;20336;-88
2023/01/03 03:06:06;;;;;;;18.10;16.33;;;8.60;99.90;;;;;;3968985;30;20062;-88
2023/01/03 03:08:26;;;;;;;16.50;14.93;;;8.70;99.90;;;;;;3969045;30;20084;-88
2023/01/03 03:13:30;;;;;;;17.10;15.45;;;8.70;99.90;;;;;;3967774;30;20170;-88
2023/01/03 03:16:03;;;;;;;16.38;14.73;;;8.80;99.90;;;;;;3969023;30;20168;-88
2023/01/03 03:18:50;;;;;;;19.17;15.52;;;8.80;99.90;;;;;;3968652;30;20373;-88
2023/01/03 03:26:41;;;;;;;18.42;16.58;;;8.70;99.90;;;;;;4014311;29;20420;-88
2023/01/03 03:29:08;;;;;;;19.58;16.10;;;8.70;99.90;;;;;;4013207;29;20088;-88
2023/01/03 03:31:37;;;;;;;21.92;15.52;;;8.60;99.90;;;;;;4013760;29;20052;-88
2023/01/03 03:34:31;;;;;;;23.58;17.42;;;8.60;99.90;;;;;;4014784;29;20052;-88
2023/01/03 03:36:56;;;;;;;20.95;18.75;;;8.60;99.90;;;;;;4014378;29;20085;-88
2023/01/03 03:45:04;;;;;;;24.15;19.85;;;8.60;99.90;;;;;;4015183;29;20288;-88
2023/01/03 03:47:47;;;;;;;19.98;17.63;;;8.50;99.90;;;;;;4013990;29;20404;-88
2023/01/03 03:50:19;;;;;;;21.98;17.50;;;8.40;99.90;;;;;;4015122;29;20053;-87
2023/01/03 03:52:44;;;;;;;22.17;18.98;;;8.50;99.90;;;;;;4014393;29;20058;-87
2023/01/03 03:55:15;;;;;;;20.00;17.92;;;8.30;99.90;;;;;;4014065;29;20094;-88
2023/01/03 03:57:43;;;;;;;20.38;18.50;;;8.40;99.90;;;;;;4015034;29;20368;-87
2023/01/03 04:00:18;;;;;;;21.58;17.75;;;8.40;99.90;;;;;;4026698;29;20081;-87
2023/01/03 04:02:41;;;;;;;19.25;17.02;;;8.40;99.90;;;;;;4027162;29;20081;-88
2023/01/03 04:05:06;;;;;;;23.83;18.65;;;8.40;99.90;;;;;;4014259;29;20096;-87
2023/01/03 04:07:26;;;;;;;19.58;17.67;;;8.50;99.90;;;;;;4014653;29;20400;-87
2023/01/03 04:09:47;;;;;;;18.85;17.33;;;8.50;99.90;;;;;;4014380;29;20090;-87
2023/01/03 04:12:07;;;;;;;20.58;18.30;;;8.50;99.90;;;;;;4014358;29;20092;-87
2023/01/03 04:14:27;;;;;;;20.65;18.42;;;8.50;99.90;;;;;;4014793;29;20113;-88
2023/01/03 04:16:47;;;;;;;22.08;19.17;;;8.50;99.90;;;;;;4017159;29;20113;-87
2023/01/03 04:19:07;;;;;;;20.92;19.20;;;8.50;99.90;;;;;;4026901;29;20051;-88
2023/01/03 04:21:27;;;;;;;20.92;18.13;;;8.40;99.90;;;;;;4014641;29;20049;-88
2023/01/03 04:23:48;;;;;;;31.30;21.13;;;8.40;99.90;;;;;;4014102;29;20396;-88
2023/01/03 04:26:08;;;;;;;27.10;21.40;;;8.40;99.90;;;;;;4014821;29;20148;-88
2023/01/03 04:28:28;;;;;;;28.77;22.83;;;8.40;99.90;;;;;;4006336;29;20057;-88
2023/01/03 04:30:48;;;;;;;21.20;19.05;;;8.40;99.90;;;;;;4014631;29;20080;-87
2023/01/03 04:33:08;;;;;;;25.70;21.05;;;8.40;99.90;;;;;;4013655;29;20091;-87
2023/01/03 04:35:28;;;;;;;24.02;20.70;;;8.50;99.90;;;;;;4013061;29;20057;-88
2023/01/03 04:37:48;;;;;;;25.20;20.60;;;8.50;99.90;;;;;;4012374;29;20229;-88
2023/01/03 04:40:08;;;;;;;22.27;19.63;;;8.40;99.90;;;;;;4014587;29;20090;-87
2023/01/03 04:45:08;;;;;;;23.25;20.02;;;8.30;99.90;;;;;;4014290;29;20045;-88
2023/01/03 04:47:28;;;;;;;23.10;19.92;;;8.20;99.90;;;;;;4014243;29;20057;-88
2023/01/03 04:49:47;;;;;;;21.17;19.02;;;8.20;99.90;;;;;;4014340;29;20086;-87
2023/01/03 04:52:07;;;;;;;20.52;18.42;;;8.20;99.90;;;;;;4029327;29;20057;-88
2023/01/03 04:54:27;;;;;;;24.75;21.15;;;8.20;99.90;;;;;;4017116;29;20049;-88
2023/01/03 04:56:46;;;;;;;22.30;19.70;;;8.20;99.90;;;;;;4017047;29;20103;-88
2023/01/03 04:59:06;;;;;;;21.58;19.08;;;8.20;99.90;;;;;;4016377;29;20053;-88
2023/01/03 05:01:27;;;;;;;24.55;19.85;;;8.30;99.90;;;;;;4015840;29;20102;-88
2023/01/03 05:03:48;;;;;;;20.45;18.48;;;8.50;99.90;;;;;;4010411;29;20294;-87
2023/01/03 05:06:11;;;;;;;19.60;17.60;;;8.40;99.90;;;;;;4017101;29;20090;-87
2023/01/03 05:08:30;;;;;;;29.90;21.13;;;8.40;99.90;;;;;;4017104;29;20285;-87
2023/01/03 05:10:52;;;;;;;24.55;19.88;;;8.40;99.90;;;;;;4016999;29;20309;-87
2023/01/03 05:13:12;;;;;;;22.90;19.88;;;8.40;99.90;;;;;;4015642;29;20061;-88
2023/01/03 05:15:35;;;;;;;26.25;21.08;;;8.40;99.90;;;;;;4017047;29;20096;-88
2023/01/03 05:17:56;;;;;;;23.55;18.92;;;8.30;99.90;;;;;;4015590;29;20110;-88
2023/01/03 05:25:50;;;;;;;21.45;18.17;;;8.10;99.90;;;;;;4016508;29;20053;-88
2023/01/03 05:28:10;;;;;;;22.30;18.70;;;8.20;99.90;;;;;;4008024;29;20041;-87
2023/01/03 05:30:36;;;;;;;26.50;22.20;;;8.10;99.90;;;;;;4016200;29;20099;-88
2023/01/03 05:32:57;;;;;;;22.35;19.98;;;8.20;99.90;;;;;;4016630;29;20078;-88
2023/01/03 05:35:17;;;;;;;25.05;21.00;;;8.20;99.90;;;;;;4019269;29;20399;-87
2023/01/03 05:37:37;;;;;;;25.38;20.98;;;8.30;99.90;;;;;;4016668;29;20053;-87
2023/01/03 05:39:57;;;;;;;20.23;17.20;;;8.30;99.90;;;;;;4015209;29;20056;-88
2023/01/03 05:42:17;;;;;;;23.55;16.95;;;8.40;99.90;;;;;;4005260;29;20486;-87
2023/01/03 05:44:37;;;;;;;21.85;18.88;;;8.40;99.90;;;;;;4016632;29;20092;-87
2023/01/03 05:46:58;;;;;;;21.35;19.20;;;8.50;99.90;;;;;;4016068;29;20053;-87
2023/01/03 05:49:18;;;;;;;19.83;17.85;;;8.50;99.90;;;;;;4016091;29;20244;-87
2023/01/03 05:51:38;;;;;;;21.58;19.35;;;8.50;99.90;;;;;;4015921;29;20090;-87
2023/01/03 05:53:59;;;;;;;21.20;19.25;;;8.60;99.90;;;;;;4016520;29;20076;-88
2023/01/03 05:56:19;;;;;;;24.17;21.60;;;8.50;99.90;;;;;;4015101;29;20098;-87
2023/01/03 05:58:41;;;;;;;20.55;18.17;;;8.50;99.90;;;;;;4015048;29;20362;-87
2023/01/03 06:01:08;;;;;;;20.83;18.77;;;8.50;99.90;;;;;;4014076;29;20061;-88
2023/01/03 06:03:28;;;;;;;22.55;19.63;;;8.50;99.90;;;;;;4014445;29;20049;-87
2023/01/03 06:05:48;;;;;;;21.38;19.02;;;8.50;99.90;;;;;;4016240;29;20048;-88
2023/01/03 06:08:10;;;;;;;24.50;19.65;;;8.50;99.90;;;;;;4015147;29;20261;-87
2023/01/03 06:10:30;;;;;;;20.73;18.88;;;8.50;99.90;;;;;;4009044;29;20268;-87
2023/01/03 06:12:50;;;;;;;28.52;20.08;;;8.50;99.90;;;;;;4009657;29;20152;-87
2023/01/03 06:15:09;;;;;;;22.85;20.45;;;8.50;99.90;;;;;;4015947;29;20072;-88
2023/01/03 06:20:08;;;;;;;25.30;20.13;;;8.40;99.90;;;;;;4014899;29;20303;-88
2023/01/03 06:22:28;;;;;;;33.40;20.13;;;8.40;99.90;;;;;;4014880;29;20113;-88
2023/01/03 06:24:48;;;;;;;24.17;20.75;;;8.50;99.90;;;;;;4016442;29;20404;-91
2023/01/03 06:27:08;;;;;;;24.95;22.33;;;8.50;99.90;;;;;;4002469;29;20110;-92
2023/01/03 06:29:28;;;;;;;31.80;26.17;;;8.50;99.90;;;;;;4015486;29;20356;-90
2023/01/03 06:31:48;;;;;;;28.77;24.20;;;8.40;99.90;;;;;;4016124;29;20379;-92
2023/01/03 06:34:08;;;;;;;24.20;21.90;;;8.40;99.90;;;;;;4026558;29;20064;-92
2023/01/03 06:36:30;;;;;;;31.45;22.67;;;8.30;99.90;;;;;;4015968;29;20202;-91
2023/01/03 06:38:52;;;;;;;26.25;22.13;;;8.30;99.90;;;;;;4028120;29;20065;-91
2023/01/03 06:41:13;;;;;;;24.15;21.70;;;8.20;99.90;;;;;;4015484;29;20052;-91
2023/01/03 06:43:33;;;;;;;24.35;21.92;;;8.20;99.90;;;;;;4015477;29;20240;-91
2023/01/03 06:53:56;;;;;;;27.58;22.50;;;8.40;99.90;;;;;;4015363;29;20371;-91
2023/01/03 06:56:17;;;;;;;28.95;23.27;;;8.50;99.90;;;;;;4014758;29;20129;-91
2023/01/03 06:58:36;;;;;;;24.08;21.70;;;8.40;99.90;;;;;;4015718;29;20233;-91
2023/01/03 07:00:58;;;;;;;22.58;20.15;;;8.40;99.90;;;;;;4014928;29;20060;-93
2023/01/03 07:03:20;;;;;;;31.00;22.85;;;8.40;99.90;;;;;;4027633;29;20281;-93
2023/01/03 07:05:40;;;;;;;31.95;22.70;;;8.30;99.90;;;;;;4013945;29;20052;-92
2023/01/03 07:07:59;;;;;;;27.13;24.25;;;8.30;99.90;;;;;;4014034;29;20294;-93
2023/01/03 07:10:19;;;;;;;25.13;22.75;;;8.30;99.90;;;;;;4027784;29;20121;-93
2023/01/03 07:15:17;;;;;;;46.85;32.17;;;8.30;99.90;;;;;;4015070;29;20113;-93
2023/01/03 07:17:37;;;;;;;45.78;32.28;;;8.30;99.90;;;;;;4015534;29;20040;-93
2023/01/03 07:19:57;;;;;;;47.25;34.20;;;8.30;99.90;;;;;;4014700;29;20061;-93
2023/01/03 07:22:16;;;;;;;26.77;23.98;;;8.30;99.90;;;;;;4013699;29;20125;-93
2023/01/03 07:24:36;;;;;;;28.73;23.05;;;8.30;99.90;;;;;;4013210;29;20061;-93
2023/01/03 07:26:56;;;;;;;34.78;23.08;;;8.30;99.90;;;;;;4013727;29;20097;-93
2023/01/03 07:29:16;;;;;;;26.27;21.10;;;8.30;99.90;;;;;;4015503;29;20118;-93
2023/01/03 07:31:40;;;;;;;27.00;21.00;;;8.20;99.90;;;;;;4015424;29;20098;-92
2023/01/03 07:34:01;;;;;;;22.02;19.48;;;8.20;99.90;;;;;;4015335;29;20240;-93
2023/01/03 07:36:21;;;;;;;20.63;17.98;;;8.20;99.90;;;;;;4014832;29;20097;-92
2023/01/03 07:38:43;;;;;;;26.25;19.25;;;8.20;99.90;;;;;;4015434;29;20060;-93
2023/01/03 07:41:04;;;;;;;23.23;20.83;;;8.20;99.90;;;;;;4014251;29;20090;-93
2023/01/03 07:43:36;;;;;;;31.40;22.02;;;8.20;99.90;;;;;;4008397;29;20102;-93
2023/01/03 07:45:56;;;;;;;20.48;18.33;;;8.20;99.90;;;;;;4014112;29;20081;-93
2023/01/03 07:48:16;;;;;;;21.20;18.90;;;8.20;99.90;;;;;;4027403;29;20083;-91
2023/01/03 07:50:37;;;;;;;19.02;17.17;;;8.20;99.90;;;;;;4013331;29;20105;-94
2023/01/03 07:52:56;;;;;;;26.42;20.20;;;8.20;99.90;;;;;;4014085;29;20045;-93
2023/01/03 07:55:16;;;;;;;34.95;26.67;;;8.30;99.90;;;;;;4013891;29;20078;-93
2023/01/03 07:57:37;;;;;;;43.92;33.60;;;8.20;99.90;;;;;;4015025;29;20068;-93
2023/01/03 07:59:57;;;;;;;40.53;33.20;;;8.20;99.90;;;;;;4014315;29;20110;-94
2023/01/03 08:02:19;;;;;;;35.08;29.98;;;8.10;99.90;;;;;;4014449;29;20084;-93
2023/01/03 08:04:39;;;;;;;37.60;28.45;;;8.10;99.90;;;;;;4012701;29;20244;-94
2023/01/03 08:06:59;;;;;;;50.65;36.95;;;8.10;99.90;;;;;;4015180;29;20090;-94
2023/01/03 08:14:36;;;;;;;36.15;29.77;;;8.20;99.90;;;;;;4014737;29;20423;-94
2023/01/03 08:16:56;;;;;;;38.10;32.08;;;8.10;99.90;;;;;;4014303;29;20103;-93
2023/01/03 08:19:16;;;;;;;36.97;30.23;;;8.20;99.90;;;;;;4013598;29;20084;-93
2023/01/03 08:21:36;;;;;;;37.42;30.55;;;8.20;99.90;;;;;;4013982;29;20125;-93
2023/01/03 08:23:56;;;;;;;47.70;30.92;;;8.20;99.90;;;;;;4014434;29;20237;-93
2023/01/03 08:26:17;;;;;;;26.85;24.23;;;8.20;99.90;;;;;;4013280;29;20094;-94
2023/01/03 08:28:38;;;;;;;26.77;23.75;;;8.30;99.90;;;;;;4013829;29;20053;-94
2023/01/03 08:31:03;;;;;;;33.95;25.90;;;8.40;99.90;;;;;;4013210;29;20688;-93
2023/01/03 08:33:26;;;;;;;19.65;17.65;;;8.50;99.90;;;;;;4014754;29;20044;-92
2023/01/03 08:35:54;;;;;;;21.63;18.40;;;8.60;99.90;;;;;;4014299;29;20076;-93
2023/01/03 08:38:20;;;;;;;16.92;15.40;;;8.60;99.90;;;;;;4013282;29;20753;-92
2023/01/03 08:40:41;;;;;;;22.90;20.52;;;8.70;99.90;;;;;;4015626;29;20090;-93
2023/01/03 08:43:04;;;;;;;31.42;26.90;;;8.70;99.90;;;;;;4014725;29;20419;-93
2023/01/03 08:45:25;;;;;;;30.70;25.38;;;8.70;99.90;;;;;;4008202;29;20372;-93
2023/01/03 08:47:46;;;;;;;26.23;22.20;;;8.80;99.90;;;;;;4025494;29;20125;-92
2023/01/03 08:50:06;;;;;;;31.77;27.33;;;8.80;99.90;;;;;;4012195;29;20057;-94
2023/01/03 08:52:26;;;;;;;34.67;27.42;;;8.90;99.90;;;;;;4014811;29;20098;-93
2023/01/03 08:54:57;;;;;;;30.90;25.05;;;9.00;99.90;;;;;;4014539;29;20113;-93
2023/01/03 08:57:17;;;;;;;28.08;22.95;;;9.10;99.90;;;;;;4014220;29;20060;-93
2023/01/03 08:59:37;;;;;;;26.13;23.13;;;9.00;99.90;;;;;;4014314;29;20132;-92
2023/01/03 09:01:58;;;;;;;21.00;19.13;;;9.00;99.90;;;;;;4014519;29;20056;-93
2023/01/03 09:04:19;;;;;;;27.05;23.33;;;9.10;99.90;;;;;;4014432;29;20159;-93
2023/01/03 09:06:39;;;;;;;22.67;20.27;;;9.10;99.90;;;;;;4014037;29;20060;-92
2023/01/03 09:09:06;;;;;;;24.25;21.63;;;9.10;99.90;;;;;;4020191;29;20329;-93
2023/01/03 09:11:26;;;;;;;20.10;18.00;;;9.10;99.90;;;;;;4013961;29;20073;-93
2023/01/03 09:13:46;;;;;;;24.40;19.38;;;9.20;99.90;;;;;;4026638;29;20076;-92
2023/01/03 09:16:11;;;;;;;35.20;21.05;;;9.20;99.90;;;;;;4013251;29;20073;-92
2023/01/03 09:18:33;;;;;;;30.45;20.40;;;9.30;99.90;;;;;;4013284;29;20057;-93
2023/01/03 09:20:53;;;;;;;30.95;23.67;;;9.30;99.90;;;;;;4014449;29;20096;-92
2023/01/03 09:23:13;;;;;;;37.63;26.63;;;9.40;99.90;;;;;;4012753;29;20178;-92
2023/01/03 09:25:33;;;;;;;23.98;21.00;;;9.40;99.90;;;;;;4014084;29;20080;-93
2023/01/03 09:27:57;;;;;;;35.85;26.92;;;9.40;99.90;;;;;;4013902;29;20044;-92
2023/01/03 09:30:18;;;;;;;31.42;22.58;;;9.40;99.90;;;;;;4013374;29;20053;-93
2023/01/03 09:32:39;;;;;;;29.55;21.85;;;9.60;99.90;;;;;;4026475;29;20404;-93
2023/01/03 09:34:59;;;;;;;20.90;18.45;;;9.70;99.90;;;;;;4025096;29;20048;-92
2023/01/03 09:37:19;;;;;;;22.30;19.42;;;9.80;99.90;;;;;;4014924;29;20056;-91
2023/01/03 09:39:40;;;;;;;26.55;19.17;;;9.80;99.90;;;;;;4016921;29;20249;-91
2023/01/03 09:44:39;;;;;;;19.90;17.25;;;9.90;99.90;;;;;;4016077;29;20049;-90
2023/01/03 09:47:00;;;;;;;17.05;14.40;;;10.10;99.90;;;;;;4016420;29;20376;-91
2023/01/03 09:49:20;;;;;;;17.60;15.32;;;10.20;99.90;;;;;;4015933;29;20129;-91
2023/01/03 10:03:44;;;;;;;25.67;17.50;;;11.00;99.90;;;;;;4014731;29;20126;-91
2023/01/03 10:06:33;;;;;;;21.35;13.25;;;11.00;99.90;;;;;;4015778;29;20151;-91
2023/01/03 10:09:09;;;;;;;23.23;16.73;;;11.00;99.90;;;;;;4015590;29;20421;-91
2023/01/03 10:11:41;;;;;;;16.15;14.50;;;11.20;99.90;;;;;;4013486;29;20293;-91
2023/01/03 10:14:08;;;;;;;15.90;13.95;;;11.10;99.90;;;;;;4007973;29;20250;-91
2023/01/03 10:16:40;;;;;;;15.07;13.45;;;11.10;99.90;;;;;;4010063;29;20108;-91
2023/01/03 10:19:06;;;;;;;14.70;13.27;;;11.10;99.90;;;;;;4006344;29;20065;-90
2023/01/03 10:21:42;;;;;;;21.90;17.30;;;11.20;99.90;;;;;;4004589;29;20053;-91
2023/01/03 10:24:17;;;;;;;22.63;15.48;;;11.40;99.90;;;;;;4008257;29;20053;-90
2023/01/03 10:26:36;;;;;;;26.15;19.00;;;11.60;99.90;;;;;;4015162;29;20056;-92
2023/01/03 10:28:56;;;;;;;20.70;15.05;;;11.80;99.90;;;;;;4016121;29;20086;-92
2023/01/03 10:31:35;;;;;;;15.02;13.68;;;11.80;99.90;;;;;;4015080;29;20107;-92
2023/01/03 10:33:55;;;;;;;13.30;11.98;;;11.70;99.90;;;;;;4006058;29;20090;-91
2023/01/03 10:36:18;;;;;;;13.32;12.00;;;11.60;99.90;;;;;;4006526;29;20111;-91
2023/01/03 10:38:38;;;;;;;12.15;11.23;;;11.70;99.90;;;;;;4014437;29;20048;-91
2023/01/03 10:41:14;;;;;;;12.27;11.13;;;12.20;99.90;;;;;;4014046;29;20326;-91
2023/01/03 10:43:43;;;;;;;12.35;11.15;;;12.30;99.90;;;;;;4014220;29;20117;-91
2023/01/03 10:46:05;;;;;;;13.02;11.88;;;12.40;99.90;;;;;;4027133;29;20048;-91
2023/01/03 10:48:37;;;;;;;17.58;12.90;;;12.60;99.90;;;;;;4013565;29;20065;-91
2023/01/03 10:51:39;;;;;;;13.05;10.80;;;12.60;99.90;;;;;;4015221;29;20056;-91
2023/01/03 10:54:18;;;;;;;14.02;10.98;;;12.70;99.90;;;;;;4004477;29;20126;-91
2023/01/03 10:56:38;;;;;;;12.50;11.13;;;12.80;99.90;;;;;;4005657;29;20091;-91
2023/01/03 10:59:22;;;;;;;11.65;10.45;;;12.90;99.90;;;;;;4017851;29;20089;-91
2023/01/03 11:02:07;;;;;;;11.75;10.52;;;12.80;99.90;;;;;;4014822;29;20117;-91
2023/01/03 11:04:30;;;;;;;11.48;10.32;;;12.90;99.90;;;;;;4015348;29;20040;-90
2023/01/03 11:07:15;;;;;;;13.00;10.55;;;12.50;99.90;;;;;;4019733;29;20053;-90
2023/01/03 11:09:47;;;;;;;10.65;9.73;;;13.00;99.90;;;;;;4028022;29;20053;-90
2023/01/03 11:12:35;;;;;;;10.65;8.13;;;12.90;99.90;;;;;;4015316;29;20075;-90
2023/01/03 11:14:56;;;;;;;9.43;8.70;;;12.60;99.90;;;;;;4014482;29;20320;-90
2023/01/03 11:17:20;;;;;;;8.63;8.05;;;12.60;99.90;;;;;;4015334;29;20485;-91
2023/01/03 11:19:40;;;;;;;9.68;8.85;;;12.60;99.90;;;;;;4014735;29;20057;-91
2023/01/03 11:22:29;;;;;;;7.75;7.28;;;12.90;99.90;;;;;;4016852;29;20317;-91
2023/01/03 11:25:33;;;;;;;11.30;10.30;;;12.80;99.90;;;;;;4027102;29;20057;-91
2023/01/03 11:28:06;;;;;;;12.10;10.60;;;13.10;99.90;;;;;;4027060;29;20049;-91
2023/01/03 11:30:48;;;;;;;12.77;11.45;;;13.20;99.90;;;;;;4011728;29;20106;-92
2023/01/03 11:33:17;;;;;;;13.18;11.80;;;13.10;99.90;;;;;;4026875;29;20060;-91
2023/01/03 11:35:46;;;;;;;14.10;10.48;;;13.00;99.90;;;;;;4019650;29;20074;-92
2023/01/03 11:38:15;;;;;;;14.18;11.18;;;13.00;99.90;;;;;;4007680;29;20170;-91
2023/01/03 11:40:47;;;;;;;30.10;26.88;;;12.80;99.90;;;;;;4028125;29;20161;-92
2023/01/03 11:43:34;;;;;;;25.88;19.77;;;12.70;99.90;;;;;;4012621;29;20090;-92
2023/01/03 11:46:23;;;;;;;14.77;12.45;;;12.90;99.90;;;;;;4007045;29;20098;-92
2023/01/03 11:48:52;;;;;;;17.08;15.38;;;12.80;99.90;;;;;;4005408;29;20053;-93
2023/01/03 11:51:12;;;;;;;17.10;13.60;;;12.70;99.90;;;;;;4026782;29;20121;-93
2023/01/03 11:53:36;;;;;;;14.65;11.68;;;12.60;99.90;;;;;;4015082;29;20469;-92
2023/01/03 11:56:29;;;;;;;13.27;12.18;;;12.40;99.90;;;;;;4026232;29;20432;-91
2023/01/03 11:58:55;;;;;;;;;;;12.30;99.90;;;;;;4014091;29;20094;-92
2023/01/03 12:01:52;;;;;;;17.98;15.98;;;12.30;99.90;;;;;;4015009;29;19926;-92
2023/01/03 12:04:33;;;;;;;15.60;13.40;;;12.40;99.90;;;;;;3962854;30;20067;-91
2023/01/03 12:06:59;;;;;;;15.15;11.70;;;12.50;99.90;;;;;;3963242;30;20066;-93
2023/01/03 12:10:09;;;;;;;13.23;12.00;;;12.60;99.90;;;;;;3958385;30;20308;-92
2023/01/03 12:12:47;;;;;;;17.25;15.52;;;12.60;99.90;;;;;;3960030;30;20093;-92
2023/01/03 12:15:30;;;;;;;51.05;33.60;;;12.60;99.90;;;;;;3961726;30;20266;-93
2023/01/03 12:18:15;;;;;;;21.83;15.65;;;12.70;99.90;;;;;;3951343;30;20149;-93
2023/01/03 12:20:39;;;;;;;13.13;11.93;;;12.70;99.90;;;;;;3962175;30;20070;-92
2023/01/03 12:23:14;;;;;;;15.80;11.23;;;12.60;99.90;;;;;;3954114;30;20093;-92
2023/01/03 12:25:46;;;;;;;12.73;11.63;;;12.60;99.90;;;;;;3960817;30;20278;-92
2023/01/03 12:28:37;;;;;;;19.35;14.35;;;12.50;99.90;;;;;;3965107;30;20400;-92
2023/01/03 12:31:00;;;;;;;14.07;12.35;;;12.50;99.90;;;;;;3949084;30;20059;-92
2023/01/03 12:33:41;;;;;;;15.07;13.07;;;12.50;99.90;;;;;;3963641;29;20371;-92
2023/01/03 12:36:15;;;;;;;21.75;16.85;;;12.60;99.90;;;;;;3960478;30;20077;-92
2023/01/03 12:38:40;;;;;;;21.48;15.60;;;12.70;99.90;;;;;;3948224;30;20253;-92
2023/01/03 12:41:40;;;;;;;14.70;13.48;;;12.60;99.90;;;;;;3996265;29;20065;-92
2023/01/03 12:44:24;;;;;;;13.38;12.20;;;12.60;99.90;;;;;;3955491;30;20109;-92
2023/01/03 12:46:49;;;;;;;14.73;11.57;;;12.60;99.90;;;;;;3947957;30;20063;-92
2023/01/03 12:49:39;;;;;;;18.55;16.13;;;12.50;99.90;;;;;;3954009;30;20050;-92
2023/01/03 12:52:00;;;;;;;14.75;13.40;;;12.50;99.90;;;;;;3954098;30;20066;-92
2023/01/03 12:55:02;;;;;;;26.33;20.08;;;12.50;99.90;;;;;;3960345;30;20069;-92
2023/01/03 12:57:50;;;;;;;14.60;13.07;;;12.60;99.90;;;;;;3943462;30;20066;-92
2023/01/03 13:00:36;;;;;;;19.95;14.75;;;12.60;99.90;;;;;;3958335;30;20161;-92
2023/01/03 13:03:13;;;;;;;17.77;16.02;;;12.60;99.90;;;;;;3967470;30;20117;-92
2023/01/03 13:05:48;;;;;;;16.40;13.35;;;12.50;99.90;;;;;;3949911;30;20086;-93
2023/01/03 13:08:16;;;;;;;12.80;11.75;;;12.40;99.90;;;;;;3961741;30;20050;-92
2023/01/03 13:10:40;;;;;;;13.60;12.20;;;12.40;99.90;;;;;;3967104;29;20144;-92
2023/01/03 13:13:00;;;;;;;11.50;10.55;;;12.50;99.90;;;;;;3969091;30;20059;-92
2023/01/03 13:15:30;;;;;;;15.23;13.68;;;12.40;99.90;;;;;;3970523;30;20055;-92
2023/01/03 13:18:21;;;;;;;14.85;13.50;;;12.40;99.90;;;;;;3992720;29;20113;-92
2023/01/03 13:20:40;;;;;;;13.70;11.40;;;12.40;99.90;;;;;;4028085;29;20056;-93
2023/01/03 13:23:27;;;;;;;13.07;11.82;;;12.30;99.90;;;;;;4015937;29;20083;-92
2023/01/03 13:26:05;;;;;;;11.32;10.52;;;12.30;99.90;;;;;;4028926;29;20089;-91
2023/01/03 13:28:25;;;;;;;14.00;12.60;;;12.30;99.90;;;;;;4010357;29;20114;-92